sensor_id;sensor_type;location;lat;lon;timestamp;pressure;altitude;pressure_sealevel;temperature;humidity
75418;BME280;63997;52.112;5.420;2023-03-23T00:01:54;100318.47;;;11.02;89.44
75418;BME280;63997;52.112;5.420;2023-03-23T00:04:20;100326.56;;;11.06;89.36
75418;BME280;63997;52.112;5.420;2023-03-23T00:06:46;100307.16;;;11.05;89.40
75418;BME280;63997;52.112;5.420;2023-03-23T00:09:13;100295.41;;;11.06;89.26
75418;BME280;63997;52.112;5.420;2023-03-23T00:11:40;100275.22;;;11.05;88.96
75418;BME280;63997;52.112;5.420;2023-03-23T00:14:06;100263.03;;;11.04;89.45
75418;BME280;63997;52.112;5.420;2023-03-23T00:16:39;100270.91;;;11.01;89.45
75418;BME280;63997;52.112;5.420;2023-03-23T00:19:08;100288.09;;;11.03;89.20
75418;BME280;63997;52.112;5.420;2023-03-23T00:21:36;100285.78;;;11.02;89.03
75418;BME280;63997;52.112;5.420;2023-03-23T00:24:18;100280.44;;;11.02;88.93
75418;BME280;63997;52.112;5.420;2023-03-23T00:26:45;100286.66;;;11.06;88.51
75418;BME280;63997;52.112;5.420;2023-03-23T00:29:20;100285.19;;;11.08;88.28
75418;BME280;63997;52.112;5.420;2023-03-23T00:31:49;100283.31;;;11.09;88.25
75418;BME280;63997;52.112;5.420;2023-03-23T00:34:17;100276.88;;;11.10;88.02
75418;BME280;63997;52.112;5.420;2023-03-23T00:36:45;100270.88;;;11.13;87.85
75418;BME280;63997;52.112;5.420;2023-03-23T00:39:11;100269.44;;;11.16;87.46
75418;BME280;63997;52.112;5.420;2023-03-23T00:41:37;100277.09;;;11.17;87.17
75418;BME280;63997;52.112;5.420;2023-03-23T00:44:03;100268.31;;;11.17;87.22
75418;BME280;63997;52.112;5.420;2023-03-23T00:46:28;100265.66;;;11.17;86.91
75418;BME280;63997;52.112;5.420;2023-03-23T00:48:55;100263.00;;;11.17;87.14
75418;BME280;63997;52.112;5.420;2023-03-23T00:51:22;100257.34;;;11.18;86.83
75418;BME280;63997;52.112;5.420;2023-03-23T00:53:48;100246.25;;;11.16;86.89
75418;BME280;63997;52.112;5.420;2023-03-23T00:56:14;100245.16;;;11.17;86.36
75418;BME280;63997;52.112;5.420;2023-03-23T00:58:39;100242.50;;;11.17;86.91
75418;BME280;63997;52.112;5.420;2023-03-23T01:01:06;100235.28;;;11.18;86.54
75418;BME280;63997;52.112;5.420;2023-03-23T01:03:31;100229.19;;;11.17;86.74
75418;BME280;63997;52.112;5.420;2023-03-23T01:05:57;100241.28;;;11.15;86.63
75418;BME280;63997;52.112;5.420;2023-03-23T01:08:23;100236.72;;;11.15;86.62
75418;BME280;63997;52.112;5.420;2023-03-23T01:10:49;100237.50;;;11.16;86.71
75418;BME280;63997;52.112;5.420;2023-03-23T01:13:16;100232.94;;;11.16;86.43
75418;BME280;63997;52.112;5.420;2023-03-23T01:15:42;100224.72;;;11.21;86.54
75418;BME280;63997;52.112;5.420;2023-03-23T01:18:09;100229.63;;;11.19;86.53
75418;BME280;63997;52.112;5.420;2023-03-23T01:20:36;100226.19;;;11.19;86.21
75418;BME280;63997;52.112;5.420;2023-03-23T01:23:02;100242.25;;;11.22;86.48
75418;BME280;63997;52.112;5.420;2023-03-23T01:25:31;100226.25;;;11.22;86.31
75418;BME280;63997;52.112;5.420;2023-03-23T01:27:57;100209.97;;;11.24;85.91
75418;BME280;63997;52.112;5.420;2023-03-23T01:30:23;100199.00;;;11.25;85.78
75418;BME280;63997;52.112;5.420;2023-03-23T01:32:49;100220.28;;;11.25;85.63
75418;BME280;63997;52.112;5.420;2023-03-23T01:35:15;100213.84;;;11.26;85.56
75418;BME280;63997;52.112;5.420;2023-03-23T01:37:40;100206.97;;;11.25;85.54
75418;BME280;63997;52.112;5.420;2023-03-23T01:40:06;100205.44;;;11.24;85.55
75418;BME280;63997;52.112;5.420;2023-03-23T01:42:34;100204.31;;;11.25;85.28
75418;BME280;63997;52.112;5.420;2023-03-23T01:47:45;100199.00;;;11.25;84.79
75418;BME280;63997;52.112;5.420;2023-03-23T01:50:10;100198.63;;;11.27;85.04
75418;BME280;63997;52.112;5.420;2023-03-23T01:52:36;100184.66;;;11.30;84.64
75418;BME280;63997;52.112;5.420;2023-03-23T01:55:02;100189.66;;;11.31;84.91
75418;BME280;63997;52.112;5.420;2023-03-23T01:57:28;100192.72;;;11.33;84.31
75418;BME280;63997;52.112;5.420;2023-03-23T01:59:57;100189.28;;;11.33;85.00
75418;BME280;63997;52.112;5.420;2023-03-23T02:02:26;100196.09;;;11.30;85.00
75418;BME280;63997;52.112;5.420;2023-03-23T02:04:55;100187.69;;;11.28;84.92
75418;BME280;63997;52.112;5.420;2023-03-23T02:07:22;100186.44;;;11.26;84.99
75418;BME280;63997;52.112;5.420;2023-03-23T02:09:50;100183.13;;;11.29;84.99
75418;BME280;63997;52.112;5.420;2023-03-23T02:12:15;100179.75;;;11.32;85.07
75418;BME280;63997;52.112;5.420;2023-03-23T02:14:40;100183.91;;;11.29;85.23
75418;BME280;63997;52.112;5.420;2023-03-23T02:17:08;100193.00;;;11.28;85.15
75418;BME280;63997;52.112;5.420;2023-03-23T02:33:38;100192.31;;;11.31;85.27
75418;BME280;63997;52.112;5.420;2023-03-23T02:39:21;100178.34;;;11.34;85.40
75418;BME280;63997;52.112;5.420;2023-03-23T02:44:21;100175.31;;;11.36;85.38
75418;BME280;63997;52.112;5.420;2023-03-23T02:46:47;100175.75;;;11.38;85.18
75418;BME280;63997;52.112;5.420;2023-03-23T02:49:15;100171.19;;;11.38;85.21
75418;BME280;63997;52.112;5.420;2023-03-23T02:51:43;100178.09;;;11.39;85.24
75418;BME280;63997;52.112;5.420;2023-03-23T02:54:11;100175.06;;;11.41;84.94
75418;BME280;63997;52.112;5.420;2023-03-23T02:56:38;100178.94;;;11.44;85.24
75418;BME280;63997;52.112;5.420;2023-03-23T02:59:04;100174.72;;;11.43;84.65
75418;BME280;63997;52.112;5.420;2023-03-23T03:04:03;100180.47;;;11.45;85.09
75418;BME280;63997;52.112;5.420;2023-03-23T03:06:38;100168.72;;;11.46;84.51
75418;BME280;63997;52.112;5.420;2023-03-23T03:09:14;100167.63;;;11.47;84.63
75418;BME280;63997;52.112;5.420;2023-03-23T03:11:48;100173.00;;;11.50;84.29
75418;BME280;63997;52.112;5.420;2023-03-23T03:14:29;100168.91;;;11.53;84.00
75418;BME280;63997;52.112;5.420;2023-03-23T03:17:22;100167.78;;;11.54;84.00
75418;BME280;63997;52.112;5.420;2023-03-23T03:19:51;100178.44;;;11.54;83.92
75418;BME280;63997;52.112;5.420;2023-03-23T03:22:19;100164.69;;;11.52;84.17
75418;BME280;63997;52.112;5.420;2023-03-23T03:24:47;100165.56;;;11.56;84.04
75418;BME280;63997;52.112;5.420;2023-03-23T03:27:16;100162.47;;;11.54;83.80
75418;BME280;63997;52.112;5.420;2023-03-23T03:29:45;100159.03;;;11.53;83.56
75418;BME280;63997;52.112;5.420;2023-03-23T03:32:17;100160.16;;;11.52;83.92
75418;BME280;63997;52.112;5.420;2023-03-23T03:34:44;100160.56;;;11.54;83.55
75418;BME280;63997;52.112;5.420;2023-03-23T03:37:09;100172.44;;;11.57;83.28
75418;BME280;63997;52.112;5.420;2023-03-23T03:39:37;100161.88;;;11.60;82.97
75418;BME280;63997;52.112;5.420;2023-03-23T03:42:06;100161.88;;;11.60;83.13
75418;BME280;63997;52.112;5.420;2023-03-23T03:44:33;100166.41;;;11.60;83.18
75418;BME280;63997;52.112;5.420;2023-03-23T03:46:58;100166.53;;;11.63;82.80
75418;BME280;63997;52.112;5.420;2023-03-23T03:49:24;100142.19;;;11.65;82.93
75418;BME280;63997;52.112;5.420;2023-03-23T03:51:49;100148.66;;;11.64;82.64
75418;BME280;63997;52.112;5.420;2023-03-23T03:54:15;100155.88;;;11.63;82.61
75418;BME280;63997;52.112;5.420;2023-03-23T03:56:41;100155.09;;;11.63;83.00
75418;BME280;63997;52.112;5.420;2023-03-23T03:59:08;100159.97;;;11.61;82.80
75418;BME280;63997;52.112;5.420;2023-03-23T04:01:36;100150.97;;;11.65;82.94
75418;BME280;63997;52.112;5.420;2023-03-23T04:04:01;100158.19;;;11.65;82.62
75418;BME280;63997;52.112;5.420;2023-03-23T04:06:27;100150.63;;;11.67;82.83
75418;BME280;63997;52.112;5.420;2023-03-23T04:08:57;100140.41;;;11.69;82.81
75418;BME280;63997;52.112;5.420;2023-03-23T04:11:24;100146.09;;;11.68;82.33
75418;BME280;63997;52.112;5.420;2023-03-23T04:13:51;100154.84;;;11.68;82.31
75418;BME280;63997;52.112;5.420;2023-03-23T04:16:16;100167.41;;;11.68;82.42
75418;BME280;63997;52.112;5.420;2023-03-23T04:18:42;100148.31;;;11.65;82.46
75418;BME280;63997;52.112;5.420;2023-03-23T04:21:08;100149.53;;;11.68;82.27
75418;BME280;63997;52.112;5.420;2023-03-23T04:23:34;100162.84;;;11.68;82.44
75418;BME280;63997;52.112;5.420;2023-03-23T04:26:01;100161.72;;;11.69;82.21
75418;BME280;63997;52.112;5.420;2023-03-23T04:28:28;100161.38;;;11.71;81.37
75418;BME280;63997;52.112;5.420;2023-03-23T04:30:55;100166.78;;;11.74;81.47
75418;BME280;63997;52.112;5.420;2023-03-23T04:33:25;100169.00;;;11.72;81.50
75418;BME280;63997;52.112;5.420;2023-03-23T04:35:56;100171.66;;;11.72;81.49
75418;BME280;63997;52.112;5.420;2023-03-23T04:38:23;100166.28;;;11.69;81.00
75418;BME280;63997;52.112;5.420;2023-03-23T04:40:51;100172.88;;;11.75;80.70
75418;BME280;63997;52.112;5.420;2023-03-23T04:43:17;100186.56;;;11.73;80.72
75418;BME280;63997;52.112;5.420;2023-03-23T04:45:47;100191.53;;;11.75;80.11
75418;BME280;63997;52.112;5.420;2023-03-23T04:48:12;100187.41;;;11.77;80.37
75418;BME280;63997;52.112;5.420;2023-03-23T04:50:39;100195.75;;;11.76;79.83
75418;BME280;63997;52.112;5.420;2023-03-23T04:53:04;100201.06;;;11.76;80.22
75418;BME280;63997;52.112;5.420;2023-03-23T04:55:35;100202.97;;;11.75;80.18
75418;BME280;63997;52.112;5.420;2023-03-23T04:58:04;100189.66;;;11.75;79.91
75418;BME280;63997;52.112;5.420;2023-03-23T05:00:32;100198.75;;;11.74;80.13
75418;BME280;63997;52.112;5.420;2023-03-23T05:02:57;100196.34;;;11.69;80.35
75418;BME280;63997;52.112;5.420;2023-03-23T05:05:24;100188.69;;;11.68;80.61
75418;BME280;63997;52.112;5.420;2023-03-23T05:07:51;100195.56;;;11.69;80.54
75418;BME280;63997;52.112;5.420;2023-03-23T05:10:17;100197.00;;;11.66;80.72
75418;BME280;63997;52.112;5.420;2023-03-23T05:12:43;100203.03;;;11.63;81.25
75418;BME280;63997;52.112;5.420;2023-03-23T05:15:10;100206.81;;;11.62;81.01
75418;BME280;63997;52.112;5.420;2023-03-23T05:17:36;100206.81;;;11.62;80.63
75418;BME280;63997;52.112;5.420;2023-03-23T05:20:03;100216.34;;;11.63;81.29
75418;BME280;63997;52.112;5.420;2023-03-23T05:22:30;100210.50;;;11.57;81.44
75418;BME280;63997;52.112;5.420;2023-03-23T05:24:59;100198.97;;;11.53;81.23
75418;BME280;63997;52.112;5.420;2023-03-23T05:27:27;100199.31;;;11.52;81.59
75418;BME280;63997;52.112;5.420;2023-03-23T05:29:53;100195.13;;;11.51;81.75
75418;BME280;63997;52.112;5.420;2023-03-23T05:32:18;100207.97;;;11.49;82.11
75418;BME280;63997;52.112;5.420;2023-03-23T05:34:44;100204.88;;;11.47;82.18
75418;BME280;63997;52.112;5.420;2023-03-23T05:37:10;100222.00;;;11.46;82.21
75418;BME280;63997;52.112;5.420;2023-03-23T05:39:37;100226.84;;;11.44;82.48
75418;BME280;63997;52.112;5.420;2023-03-23T05:42:03;100217.31;;;11.43;82.60
75418;BME280;63997;52.112;5.420;2023-03-23T05:44:29;100224.13;;;11.40;82.91
75418;BME280;63997;52.112;5.420;2023-03-23T05:46:54;100225.13;;;11.35;83.57
75418;BME280;63997;52.112;5.420;2023-03-23T05:49:20;100223.13;;;11.32;83.88
75418;BME280;63997;52.112;5.420;2023-03-23T05:51:46;100223.38;;;11.27;84.38
75418;BME280;63997;52.112;5.420;2023-03-23T05:54:12;100234.72;;;11.24;84.74
75418;BME280;63997;52.112;5.420;2023-03-23T05:56:38;100229.63;;;11.19;85.20
75418;BME280;63997;52.112;5.420;2023-03-23T05:59:03;100229.19;;;11.17;85.67
75418;BME280;63997;52.112;5.420;2023-03-23T06:01:29;100243.59;;;11.16;85.45
75418;BME280;63997;52.112;5.420;2023-03-23T06:03:55;100243.16;;;11.14;85.96
75418;BME280;63997;52.112;5.420;2023-03-23T06:06:24;100259.78;;;11.11;86.82
75418;BME280;63997;52.112;5.420;2023-03-23T06:08:50;100263.03;;;11.04;87.04
75418;BME280;63997;52.112;5.420;2023-03-23T06:11:16;100261.38;;;11.00;87.29
75418;BME280;63997;52.112;5.420;2023-03-23T06:13:41;100262.06;;;10.97;87.57
75418;BME280;63997;52.112;5.420;2023-03-23T06:16:07;100250.53;;;10.93;88.14
75418;BME280;63997;52.112;5.420;2023-03-23T06:18:34;100258.84;;;10.91;88.21
75418;BME280;63997;52.112;5.420;2023-03-23T06:21:03;100267.47;;;10.88;88.62
75418;BME280;63997;52.112;5.420;2023-03-23T06:23:29;100276.91;;;10.85;88.92
75418;BME280;63997;52.112;5.420;2023-03-23T06:26:01;100270.81;;;10.85;89.23
75418;BME280;63997;52.112;5.420;2023-03-23T06:28:28;100266.28;;;10.85;89.42
75418;BME280;63997;52.112;5.420;2023-03-23T06:30:54;100272.72;;;10.84;89.63
75418;BME280;63997;52.112;5.420;2023-03-23T06:33:20;100286.00;;;10.84;89.45
75418;BME280;63997;52.112;5.420;2023-03-23T06:35:45;100276.81;;;10.82;89.56
75418;BME280;63997;52.112;5.420;2023-03-23T06:38:10;100290.88;;;10.82;90.01
75418;BME280;63997;52.112;5.420;2023-03-23T06:40:37;100292.00;;;10.81;90.19
75418;BME280;63997;52.112;5.420;2023-03-23T06:43:03;100295.41;;;10.82;90.14
75418;BME280;63997;52.112;5.420;2023-03-23T06:45:32;100298.41;;;10.80;90.52
75418;BME280;63997;52.112;5.420;2023-03-23T06:47:58;100299.53;;;10.79;90.37
75418;BME280;63997;52.112;5.420;2023-03-23T06:50:23;100308.63;;;10.78;90.54
75418;BME280;63997;52.112;5.420;2023-03-23T06:52:50;100301.72;;;10.77;90.24
75418;BME280;63997;52.112;5.420;2023-03-23T06:55:16;100307.50;;;10.79;90.33
75418;BME280;63997;52.112;5.420;2023-03-23T06:57:42;100295.75;;;10.80;90.09
75418;BME280;63997;52.112;5.420;2023-03-23T07:00:10;100303.75;;;10.80;90.16
75418;BME280;63997;52.112;5.420;2023-03-23T07:02:38;100314.72;;;10.79;90.20
75418;BME280;63997;52.112;5.420;2023-03-23T07:05:04;100322.38;;;10.80;90.39
75418;BME280;63997;52.112;5.420;2023-03-23T07:07:31;100311.72;;;10.80;90.42
75418;BME280;63997;52.112;5.420;2023-03-23T07:09:56;100316.69;;;10.82;90.11
75418;BME280;63997;52.112;5.420;2023-03-23T07:12:23;100313.25;;;10.81;90.15
75418;BME280;63997;52.112;5.420;2023-03-23T07:14:49;100298.84;;;10.82;90.37
75418;BME280;63997;52.112;5.420;2023-03-23T07:17:14;100298.53;;;10.84;90.02
75418;BME280;63997;52.112;5.420;2023-03-23T07:19:40;100287.78;;;10.80;89.62
75418;BME280;63997;52.112;5.420;2023-03-23T07:22:06;100309.06;;;10.80;89.07
75418;BME280;63997;52.112;5.420;2023-03-23T07:24:32;100326.22;;;10.83;89.14
75418;BME280;63997;52.112;5.420;2023-03-23T07:26:58;100315.59;;;10.83;89.27
75418;BME280;63997;52.112;5.420;2023-03-23T07:29:23;100315.59;;;10.83;89.38
75418;BME280;63997;52.112;5.420;2023-03-23T07:31:49;100321.81;;;10.87;89.31
75418;BME280;63997;52.112;5.420;2023-03-23T07:34:14;100320.16;;;10.95;89.48
75418;BME280;63997;52.112;5.420;2023-03-23T07:36:40;100332.88;;;11.01;88.77
75418;BME280;63997;52.112;5.420;2023-03-23T07:39:05;100330.97;;;11.14;88.61
75418;BME280;63997;52.112;5.420;2023-03-23T07:41:32;100336.09;;;11.19;88.09
75418;BME280;63997;52.112;5.420;2023-03-23T07:43:57;100339.09;;;11.18;87.74
75418;BME280;63997;52.112;5.420;2023-03-23T07:46:23;100350.72;;;11.13;87.30
75418;BME280;63997;52.112;5.420;2023-03-23T07:48:48;100346.06;;;11.10;87.80
75418;BME280;63997;52.112;5.420;2023-03-23T07:51:15;100357.59;;;11.14;87.88
75418;BME280;63997;52.112;5.420;2023-03-23T07:53:42;100346.38;;;11.21;87.90
75418;BME280;63997;52.112;5.420;2023-03-23T07:56:13;100345.81;;;11.27;88.20
75418;BME280;63997;52.112;5.420;2023-03-23T07:58:41;100347.06;;;11.30;87.89
75418;BME280;63997;52.112;5.420;2023-03-23T08:01:06;100344.28;;;11.26;87.91
75418;BME280;63997;52.112;5.420;2023-03-23T08:03:32;100343.84;;;11.24;87.49
75418;BME280;63997;52.112;5.420;2023-03-23T08:05:58;100347.41;;;11.28;88.10
75418;BME280;63997;52.112;5.420;2023-03-23T08:08:25;100354.91;;;11.26;87.82
75418;BME280;63997;52.112;5.420;2023-03-23T08:10:50;100362.47;;;11.24;87.57
75418;BME280;63997;52.112;5.420;2023-03-23T08:13:16;100352.94;;;11.23;87.55
75418;BME280;63997;52.112;5.420;2023-03-23T08:15:43;100373.91;;;11.25;87.57
75418;BME280;63997;52.112;5.420;2023-03-23T08:18:17;100375.88;;;11.28;87.41
75418;BME280;63997;52.112;5.420;2023-03-23T08:20:43;100362.91;;;11.26;87.31
75418;BME280;63997;52.112;5.420;2023-03-23T08:23:10;100368.56;;;11.25;86.89
75418;BME280;63997;52.112;5.420;2023-03-23T08:25:36;100367.03;;;11.24;86.62
75418;BME280;63997;52.112;5.420;2023-03-23T08:28:01;100354.69;;;11.31;86.51
75418;BME280;63997;52.112;5.420;2023-03-23T08:30:29;100353.81;;;11.39;86.39
75418;BME280;63997;52.112;5.420;2023-03-23T08:32:56;100355.78;;;11.43;86.64
75418;BME280;63997;52.112;5.420;2023-03-23T08:35:22;100365.84;;;11.49;86.36
75418;BME280;63997;52.112;5.420;2023-03-23T08:37:49;100367.47;;;11.66;86.28
75418;BME280;63997;52.112;5.420;2023-03-23T08:40:21;100367.00;;;11.88;85.85
75418;BME280;63997;52.112;5.420;2023-03-23T08:42:48;100366.75;;;11.94;84.70
75418;BME280;63997;52.112;5.420;2023-03-23T08:45:16;100368.16;;;12.03;84.38
75418;BME280;63997;52.112;5.420;2023-03-23T08:47:43;100370.63;;;12.40;83.57
75418;BME280;63997;52.112;5.420;2023-03-23T08:50:13;100379.16;;;12.45;83.39
75418;BME280;63997;52.112;5.420;2023-03-23T08:52:40;100374.38;;;12.23;83.39
75418;BME280;63997;52.112;5.420;2023-03-23T08:55:05;100370.66;;;12.12;82.98
75418;BME280;63997;52.112;5.420;2023-03-23T08:57:34;100377.13;;;12.11;83.04
75418;BME280;63997;52.112;5.420;2023-03-23T09:00:02;100378.91;;;12.35;83.08
75418;BME280;63997;52.112;5.420;2023-03-23T09:02:39;100385.66;;;12.76;81.72
75418;BME280;63997;52.112;5.420;2023-03-23T09:05:06;100393.03;;;12.98;80.60
75418;BME280;63997;52.112;5.420;2023-03-23T09:07:32;100392.00;;;12.87;79.74
75418;BME280;63997;52.112;5.420;2023-03-23T09:09:57;100404.22;;;12.88;81.69
75418;BME280;63997;52.112;5.420;2023-03-23T09:12:23;100402.19;;;12.97;81.02
75418;BME280;63997;52.112;5.420;2023-03-23T09:14:48;100392.00;;;13.19;79.74
75418;BME280;63997;52.112;5.420;2023-03-23T09:17:14;100390.78;;;13.32;79.37
75418;BME280;63997;52.112;5.420;2023-03-23T09:19:40;100379.72;;;13.49;79.22
75418;BME280;63997;52.112;5.420;2023-03-23T09:22:06;100388.44;;;13.66;78.08
75418;BME280;63997;52.112;5.420;2023-03-23T09:24:33;100391.53;;;13.68;77.48
75418;BME280;63997;52.112;5.420;2023-03-23T09:26:58;100391.13;;;13.66;76.74
75418;BME280;63997;52.112;5.420;2023-03-23T09:29:25;100391.25;;;13.54;77.33
75418;BME280;63997;52.112;5.420;2023-03-23T09:31:51;100398.00;;;13.47;76.67
75418;BME280;63997;52.112;5.420;2023-03-23T09:34:17;100397.13;;;13.43;76.07
75418;BME280;63997;52.112;5.420;2023-03-23T09:36:43;100406.72;;;13.29;76.60
75418;BME280;63997;52.112;5.420;2023-03-23T09:39:09;100407.06;;;13.62;78.81
75418;BME280;63997;52.112;5.420;2023-03-23T09:47:35;100408.28;;;13.65;75.23
75418;BME280;63997;52.112;5.420;2023-03-23T09:50:18;100412.38;;;13.78;76.61
75418;BME280;63997;52.112;5.420;2023-03-23T09:52:53;100409.81;;;13.85;76.96
75418;BME280;63997;52.112;5.420;2023-03-23T09:55:20;100409.00;;;14.00;73.79
75418;BME280;63997;52.112;5.420;2023-03-23T09:58:10;100415.75;;;13.94;75.24
75418;BME280;63997;52.112;5.420;2023-03-23T10:01:12;100435.28;;;13.79;74.41
75418;BME280;63997;52.112;5.420;2023-03-23T10:03:42;100421.78;;;13.72;74.37
75418;BME280;63997;52.112;5.420;2023-03-23T10:06:11;100438.53;;;13.88;74.13
75418;BME280;63997;52.112;5.420;2023-03-23T10:08:41;100433.34;;;13.95;73.71
75418;BME280;63997;52.112;5.420;2023-03-23T10:16:34;100452.50;;;13.62;72.83
75418;BME280;63997;52.112;5.420;2023-03-23T10:19:24;100462.00;;;13.60;73.55
75418;BME280;63997;52.112;5.420;2023-03-23T10:21:58;100455.75;;;13.71;74.46
75418;BME280;63997;52.112;5.420;2023-03-23T10:24:50;100457.38;;;13.76;73.77
75418;BME280;63997;52.112;5.420;2023-03-23T10:27:23;100455.22;;;13.82;73.25
75418;BME280;63997;52.112;5.420;2023-03-23T10:29:55;100457.88;;;13.82;73.35
75418;BME280;63997;52.112;5.420;2023-03-23T10:32:39;100455.06;;;14.13;72.81
75418;BME280;63997;52.112;5.420;2023-03-23T10:35:11;100453.81;;;14.26;70.74
75418;BME280;63997;52.112;5.420;2023-03-23T10:37:46;100452.84;;;14.15;71.52
75418;BME280;63997;52.112;5.420;2023-03-23T10:40:19;100448.97;;;13.93;71.20
75418;BME280;63997;52.112;5.420;2023-03-23T10:42:46;100456.16;;;14.09;72.49
75418;BME280;63997;52.112;5.420;2023-03-23T10:45:22;100457.81;;;14.36;71.60
75418;BME280;63997;52.112;5.420;2023-03-23T10:47:54;100458.19;;;14.15;68.83
75418;BME280;63997;52.112;5.420;2023-03-23T10:50:29;100453.59;;;13.96;70.54
75418;BME280;63997;52.112;5.420;2023-03-23T10:52:57;100464.94;;;14.28;70.77
75418;BME280;63997;52.112;5.420;2023-03-23T10:55:24;100460.22;;;14.61;70.07
75418;BME280;63997;52.112;5.420;2023-03-23T10:58:10;100457.06;;;14.78;69.94
75418;BME280;63997;52.112;5.420;2023-03-23T11:00:41;100452.84;;;14.54;68.93
75418;BME280;63997;52.112;5.420;2023-03-23T11:08:16;100470.75;;;13.95;67.90
75418;BME280;63997;52.112;5.420;2023-03-23T11:10:50;100478.38;;;13.93;67.37
75418;BME280;63997;52.112;5.420;2023-03-23T11:13:19;100480.91;;;13.86;66.69
75418;BME280;63997;52.112;5.420;2023-03-23T11:15:46;100483.09;;;14.00;68.02
75418;BME280;63997;52.112;5.420;2023-03-23T11:18:19;100473.03;;;14.51;68.58
75418;BME280;63997;52.112;5.420;2023-03-23T11:20:48;100461.59;;;14.74;65.97
75418;BME280;63997;52.112;5.420;2023-03-23T11:23:21;100469.09;;;15.11;66.91
75418;BME280;63997;52.112;5.420;2023-03-23T11:25:54;100455.91;;;15.25;64.66
75418;BME280;63997;52.112;5.420;2023-03-23T11:28:20;100461.81;;;15.34;66.40
75418;BME280;63997;52.112;5.420;2023-03-23T11:30:46;100468.03;;;15.42;63.64
75418;BME280;63997;52.112;5.420;2023-03-23T11:33:12;100462.91;;;15.59;63.60
75418;BME280;63997;52.112;5.420;2023-03-23T11:35:43;100462.56;;;15.61;63.40
75418;BME280;63997;52.112;5.420;2023-03-23T11:38:16;100456.09;;;15.62;64.13
75418;BME280;63997;52.112;5.420;2023-03-23T11:40:51;100465.25;;;15.87;63.34
75418;BME280;63997;52.112;5.420;2023-03-23T11:43:21;100462.91;;;15.59;63.83
75418;BME280;63997;52.112;5.420;2023-03-23T11:46:16;100462.06;;;15.52;64.76
75418;BME280;63997;52.112;5.420;2023-03-23T11:48:52;100464.72;;;15.25;63.82
75418;BME280;63997;52.112;5.420;2023-03-23T11:51:45;100459.94;;;15.12;65.23
75418;BME280;63997;52.112;5.420;2023-03-23T11:54:23;100467.56;;;15.10;64.19
75418;BME280;63997;52.112;5.420;2023-03-23T11:56:52;100468.97;;;14.80;65.84
75418;BME280;63997;52.112;5.420;2023-03-23T11:59:32;100495.25;;;14.36;67.80
75418;BME280;63997;52.112;5.420;2023-03-23T12:02:12;100479.63;;;13.99;71.22
75418;BME280;63997;52.112;5.420;2023-03-23T12:04:58;100473.47;;;13.80;72.39
75418;BME280;63997;52.112;5.420;2023-03-23T12:08:22;100488.00;;;13.63;73.17
75418;BME280;63997;52.112;5.420;2023-03-23T12:13:25;100480.19;;;13.89;75.89
75418;BME280;63997;52.112;5.420;2023-03-23T12:16:24;100473.03;;;14.32;74.73
75418;BME280;63997;52.112;5.420;2023-03-23T12:19:01;100468.25;;;14.61;75.30
75418;BME280;63997;52.112;5.420;2023-03-23T12:24:44;100465.63;;;14.45;73.88
75418;BME280;63997;52.112;5.420;2023-03-23T12:27:27;100465.22;;;14.43;73.17
75418;BME280;63997;52.112;5.420;2023-03-23T12:30:18;100464.72;;;14.37;74.11
75418;BME280;63997;52.112;5.420;2023-03-23T12:35:43;100454.72;;;14.34;73.11
75418;BME280;63997;52.112;5.420;2023-03-23T12:38:47;100456.81;;;14.25;73.93
75418;BME280;63997;52.112;5.420;2023-03-23T12:41:27;100456.06;;;14.24;73.70
75418;BME280;63997;52.112;5.420;2023-03-23T12:44:00;100466.97;;;14.35;72.77
75418;BME280;63997;52.112;5.420;2023-03-23T12:46:36;100454.44;;;14.39;71.61
75418;BME280;63997;52.112;5.420;2023-03-23T12:51:53;100433.72;;;15.24;67.52
75418;BME280;63997;52.112;5.420;2023-03-23T12:54:40;100443.91;;;15.42;68.68
75418;BME280;63997;52.112;5.420;2023-03-23T12:57:29;100426.75;;;15.73;67.22
75418;BME280;63997;52.112;5.420;2023-03-23T13:00:14;100440.84;;;15.96;66.78
75418;BME280;63997;52.112;5.420;2023-03-23T13:05:54;100432.44;;;15.68;64.68
75418;BME280;63997;52.112;5.420;2023-03-23T13:08:29;100438.00;;;15.29;65.45
75418;BME280;63997;52.112;5.420;2023-03-23T13:11:01;100433.59;;;15.17;64.98
75418;BME280;63997;52.112;5.420;2023-03-23T13:13:45;100436.34;;;15.21;65.07
75418;BME280;63997;52.112;5.420;2023-03-23T13:16:37;100448.47;;;15.38;66.83
75418;BME280;63997;52.112;5.420;2023-03-23T13:22:11;100451.25;;;15.45;66.47
75418;BME280;63997;52.112;5.420;2023-03-23T13:24:56;100447.03;;;15.44;65.99
75418;BME280;63997;52.112;5.420;2023-03-23T13:27:24;100458.91;;;15.46;65.98
75418;BME280;63997;52.112;5.420;2023-03-23T13:29:53;100458.25;;;15.53;65.50
75418;BME280;63997;52.112;5.420;2023-03-23T13:32:19;100447.91;;;15.78;65.51
75418;BME280;63997;52.112;5.420;2023-03-23T13:34:47;100452.50;;;15.77;64.65
75418;BME280;63997;52.112;5.420;2023-03-23T13:39:57;100448.25;;;15.50;66.32
75418;BME280;63997;52.112;5.420;2023-03-23T13:42:26;100455.00;;;15.40;65.88
75418;BME280;63997;52.112;5.420;2023-03-23T13:55:30;100463.31;;;14.86;67.89
75418;BME280;63997;52.112;5.420;2023-03-23T13:58:08;100471.59;;;14.77;68.01
75418;BME280;63997;52.112;5.420;2023-03-23T14:00:50;100453.16;;;14.72;68.38
75418;BME280;63997;52.112;5.420;2023-03-23T14:03:25;100444.84;;;14.58;67.85
75418;BME280;63997;52.112;5.420;2023-03-23T14:11:01;100444.31;;;14.10;68.81
75418;BME280;63997;52.112;5.420;2023-03-23T14:13:43;100454.03;;;13.98;68.92
75418;BME280;63997;52.112;5.420;2023-03-23T14:16:20;100469.00;;;13.84;70.71
75418;BME280;63997;52.112;5.420;2023-03-23T14:18:52;100461.78;;;13.68;72.05
75418;BME280;63997;52.112;5.420;2023-03-23T14:21:36;100473.72;;;13.55;74.49